createdAt,value
2023-05-05T00:03:05.382Z,9.00
2023-05-05T00:08:04.587Z,9.00
2023-05-05T00:13:04.234Z,8.98
2023-05-05T00:18:03.252Z,8.90
2023-05-05T00:23:02.910Z,8.90
2023-05-05T00:28:02.473Z,8.90
2023-05-05T00:33:02.198Z,8.90
2023-05-05T00:38:01.202Z,8.90
2023-05-05T00:43:01.384Z,8.90
2023-05-05T00:48:03.023Z,8.80
2023-05-05T00:53:07.160Z,8.80
2023-05-05T00:58:07.463Z,8.70
2023-05-05T01:03:07.246Z,8.70
2023-05-05T01:08:25.279Z,8.64
2023-05-05T01:13:39.683Z,8.60
2023-05-05T01:18:49.266Z,8.50
2023-05-05T01:24:13.708Z,8.40
2023-05-05T01:30:01.020Z,8.40
2023-05-05T01:35:11.477Z,8.40
2023-05-05T01:40:14.296Z,8.40
2023-05-05T01:45:19.365Z,8.38
2023-05-05T01:50:21.012Z,8.38
2023-05-05T01:55:26.594Z,8.40
2023-05-05T02:00:28.815Z,8.40
2023-05-05T02:05:30.506Z,8.50
2023-05-05T02:10:30.230Z,8.50
2023-05-05T02:15:31.710Z,8.56
2023-05-05T02:20:34.567Z,8.60
2023-05-05T02:25:44.572Z,8.60
2023-05-05T02:30:45.804Z,8.64
2023-05-05T02:35:51.612Z,8.70
2023-05-05T02:40:56.430Z,8.70
2023-05-05T02:45:55.800Z,8.80
2023-05-05T02:50:55.691Z,8.80
2023-05-05T02:56:16.452Z,8.80
2023-05-05T03:01:34.964Z,8.90
2023-05-05T03:06:41.781Z,8.90
2023-05-05T03:11:49.087Z,9.00
2023-05-05T03:16:50.866Z,9.00
2023-05-05T03:21:50.983Z,9.10
2023-05-05T03:26:51.732Z,9.18
2023-05-05T03:31:52.413Z,9.20
2023-05-05T03:36:51.384Z,9.30
2023-05-05T03:41:52.814Z,9.30
2023-05-05T03:46:52.516Z,9.38
2023-05-05T03:51:52.628Z,9.40
2023-05-05T03:56:52.029Z,9.40
2023-05-05T04:01:50.948Z,9.42
2023-05-05T04:06:50.237Z,9.40
2023-05-05T04:11:49.922Z,9.30
2023-05-05T04:16:50.346Z,9.20
2023-05-05T04:21:49.397Z,9.20
2023-05-05T04:26:48.299Z,9.20
2023-05-05T04:31:48.140Z,9.30
2023-05-05T04:36:47.817Z,9.40
2023-05-05T04:41:47.998Z,9.56
2023-05-05T04:46:48.128Z,9.70
2023-05-05T04:51:51.263Z,9.80
2023-05-05T04:56:50.636Z,10.00
2023-05-05T05:01:53.209Z,10.20
2023-05-05T05:06:53.065Z,10.40
2023-05-05T05:11:52.799Z,10.60
2023-05-05T05:16:52.866Z,10.78
2023-05-05T05:21:52.616Z,11.00
2023-05-05T05:26:51.970Z,11.26
2023-05-05T05:31:51.807Z,11.52
2023-05-05T05:36:51.270Z,11.84
2023-05-05T05:41:51.897Z,12.18
2023-05-05T05:46:51.159Z,12.40
2023-05-05T05:51:50.674Z,12.72
2023-05-05T05:56:50.713Z,13.08
2023-05-05T06:01:50.805Z,13.40
2023-05-05T06:06:50.940Z,13.68
2023-05-05T06:11:50.156Z,13.90
2023-05-05T06:16:49.529Z,14.12
2023-05-05T06:21:51.017Z,14.38
2023-05-05T06:26:50.343Z,14.60
2023-05-05T06:31:49.463Z,14.80
2023-05-05T06:36:49.200Z,14.98
2023-05-05T06:41:48.390Z,15.10
2023-05-05T06:46:48.089Z,15.20
2023-05-05T06:51:47.333Z,15.34
2023-05-05T06:56:46.277Z,15.50
2023-05-05T07:01:45.172Z,15.60
2023-05-05T07:06:44.581Z,15.72
2023-05-05T07:11:44.455Z,15.80
2023-05-05T07:16:45.256Z,15.90
2023-05-05T07:21:45.188Z,16.00
2023-05-05T07:26:44.501Z,16.10
2023-05-05T07:31:43.435Z,16.20
2023-05-05T07:36:43.112Z,16.30
2023-05-05T07:41:42.722Z,16.40
2023-05-05T07:46:44.740Z,16.50
2023-05-05T07:51:45.047Z,16.50
2023-05-05T07:56:43.766Z,16.70
2023-05-05T08:01:43.728Z,16.90
2023-05-05T08:06:43.242Z,17.10
2023-05-05T08:11:42.798Z,17.30
2023-05-05T08:16:42.748Z,17.40
2023-05-05T08:21:41.979Z,17.50
2023-05-05T08:26:44.365Z,17.66
2023-05-05T08:31:43.838Z,17.90
2023-05-05T08:36:43.356Z,18.10
2023-05-05T08:41:43.148Z,18.40
2023-05-05T08:46:44.497Z,18.70
2023-05-05T08:51:48.145Z,19.00
2023-05-05T08:56:51.651Z,19.20
2023-05-05T09:01:55.059Z,19.42
2023-05-05T09:07:01.374Z,19.60
2023-05-05T09:12:19.947Z,19.74
2023-05-05T09:17:34.418Z,20.00
2023-05-05T09:22:51.600Z,20.20
2023-05-05T09:27:55.284Z,20.50
2023-05-05T09:33:11.808Z,20.70
2023-05-05T09:38:25.806Z,20.80
2023-05-05T09:43:53.873Z,20.80
2023-05-05T09:48:57.058Z,20.70
2023-05-05T09:54:07.731Z,20.50
2023-05-05T09:59:16.690Z,20.20
2023-05-05T10:04:37.162Z,20.00
2023-05-05T10:09:46.740Z,20.00
2023-05-05T10:14:57.300Z,20.26
2023-05-05T10:20:14.501Z,20.66
2023-05-05T10:25:19.742Z,21.00
2023-05-05T10:30:25.590Z,21.40
2023-05-05T10:35:28.205Z,21.60
2023-05-05T10:40:29.497Z,21.60
2023-05-05T10:45:29.150Z,21.60
2023-05-05T10:50:39.304Z,21.60
2023-05-05T10:55:50.052Z,21.40
2023-05-05T11:00:56.365Z,21.60
2023-05-05T11:06:14.557Z,21.70
2023-05-05T11:11:15.493Z,21.80
2023-05-05T11:16:49.977Z,22.20
2023-05-05T11:27:16.156Z,22.84
2023-05-05T11:32:20.223Z,23.00
2023-05-05T11:37:24.232Z,23.30
2023-05-05T11:42:30.356Z,23.20
2023-05-05T11:47:39.124Z,23.60
2023-05-05T11:52:38.334Z,23.30
2023-05-05T11:57:38.071Z,22.72
2023-05-05T12:02:38.727Z,22.02
2023-05-05T12:07:45.833Z,21.50
2023-05-05T12:12:55.305Z,21.50
2023-05-05T12:17:59.529Z,21.80
2023-05-05T12:23:05.396Z,22.00
2023-05-05T12:28:05.952Z,22.50
2023-05-05T12:33:09.792Z,22.70
2023-05-05T12:38:08.525Z,22.80
2023-05-05T12:43:07.515Z,22.70
2023-05-05T12:48:24.485Z,22.92
2023-05-05T12:53:28.065Z,23.50
2023-05-05T12:58:29.333Z,24.20
2023-05-05T13:03:28.837Z,24.60
2023-05-05T13:08:44.925Z,24.40
2023-05-05T13:13:43.967Z,24.20
2023-05-05T13:18:51.320Z,24.30
2023-05-05T13:23:50.556Z,24.12
2023-05-05T13:28:50.385Z,23.60
2023-05-05T13:33:49.385Z,23.20
2023-05-05T13:38:49.089Z,22.94
2023-05-05T13:43:48.987Z,22.90
2023-05-05T13:48:49.163Z,23.20
2023-05-05T13:53:51.147Z,23.20
2023-05-05T13:58:50.476Z,23.00
2023-05-05T14:03:49.970Z,22.48
2023-05-05T14:08:49.113Z,21.94
2023-05-05T14:13:49.054Z,21.30
2023-05-05T14:18:48.292Z,20.90
2023-05-05T14:23:47.414Z,20.62
2023-05-05T14:28:49.584Z,20.90
2023-05-05T14:33:49.433Z,21.60
2023-05-05T14:38:48.938Z,21.60
2023-05-05T14:43:49.422Z,21.56
2023-05-05T14:48:48.907Z,21.60
2023-05-05T14:53:47.932Z,22.00
2023-05-05T14:58:48.274Z,22.30
2023-05-05T15:03:48.331Z,22.50
2023-05-05T15:08:47.794Z,23.10
2023-05-05T15:13:47.134Z,23.70
2023-05-05T15:18:46.192Z,23.60
2023-05-05T15:23:45.686Z,23.72
2023-05-05T15:28:44.710Z,24.68
2023-05-05T15:33:45.762Z,25.98
2023-05-05T15:38:46.796Z,27.38
2023-05-05T15:43:45.577Z,28.42
2023-05-05T15:48:44.424Z,29.24
2023-05-05T15:53:43.263Z,29.98
2023-05-05T15:58:41.709Z,30.10
2023-05-05T16:03:41.575Z,30.20
2023-05-05T16:08:41.708Z,29.80
2023-05-05T16:13:40.940Z,29.30
2023-05-05T16:18:40.092Z,29.06
2023-05-05T16:23:39.659Z,29.10
2023-05-05T16:28:39.911Z,29.00
2023-05-05T16:33:41.452Z,28.98
2023-05-05T16:38:40.788Z,29.10
2023-05-05T16:43:41.893Z,29.00
2023-05-05T16:48:41.209Z,28.60
2023-05-05T16:53:41.550Z,28.40
2023-05-05T16:58:42.601Z,28.20
2023-05-05T17:03:44.202Z,27.90
2023-05-05T17:08:43.499Z,27.56
2023-05-05T17:13:43.727Z,26.90
2023-05-05T17:18:42.831Z,25.92
2023-05-05T17:23:42.589Z,24.74
2023-05-05T17:28:42.120Z,23.54
2023-05-05T17:33:41.395Z,22.34
2023-05-05T17:38:40.767Z,21.32
2023-05-05T17:43:39.829Z,20.38
2023-05-05T17:48:39.615Z,19.50
2023-05-05T17:53:38.730Z,18.66
2023-05-05T17:58:38.491Z,17.92
2023-05-05T18:03:40.052Z,17.24
2023-05-05T18:08:40.085Z,16.60
2023-05-05T18:13:38.941Z,16.00
2023-05-05T18:18:38.872Z,15.40
2023-05-05T18:23:38.499Z,14.90
2023-05-05T18:28:39.457Z,14.40
2023-05-05T18:33:38.990Z,14.00
2023-05-05T18:38:38.638Z,13.60
2023-05-05T18:43:40.100Z,13.28
2023-05-05T18:48:39.181Z,12.90
2023-05-05T18:53:38.046Z,12.60
2023-05-05T18:58:37.482Z,12.40
2023-05-05T19:03:37.684Z,12.16
2023-05-05T19:08:37.290Z,11.90
2023-05-05T19:18:39.274Z,11.58
2023-05-05T19:23:39.108Z,11.40
2023-05-05T19:28:38.012Z,11.30
2023-05-05T19:33:37.851Z,11.20
2023-05-05T19:38:37.200Z,11.10
2023-05-05T19:43:36.744Z,11.00
2023-05-05T19:48:36.125Z,10.90
2023-05-05T19:53:36.054Z,10.80
2023-05-05T19:58:57.547Z,10.70
2023-05-05T20:03:59.794Z,10.70
2023-05-05T20:08:59.004Z,10.66
2023-05-05T20:13:58.468Z,10.64
2023-05-05T20:18:58.031Z,10.66
2023-05-05T20:23:57.542Z,10.64
2023-05-05T20:28:56.771Z,10.64
2023-05-05T20:33:56.611Z,10.66
2023-05-05T20:38:55.408Z,10.70
2023-05-05T20:43:57.416Z,10.70
2023-05-05T20:48:56.871Z,10.70
2023-05-05T20:53:56.542Z,10.70
2023-05-05T20:58:56.696Z,10.70
2023-05-05T21:03:55.817Z,10.66
2023-05-05T21:08:56.546Z,10.60
2023-05-05T21:13:55.967Z,10.60
2023-05-05T21:18:55.509Z,10.58
2023-05-05T21:23:55.487Z,10.50
2023-05-05T21:28:55.704Z,10.40
2023-05-05T21:33:55.917Z,10.40
2023-05-05T21:38:58.409Z,10.30
2023-05-05T21:43:59.200Z,10.20
2023-05-05T21:48:58.976Z,10.20
2023-05-05T21:53:58.998Z,10.10
2023-05-05T21:58:58.310Z,10.00
2023-05-05T22:03:57.716Z,10.00
2023-05-05T22:08:57.788Z,9.90
2023-05-05T22:13:58.907Z,9.90
2023-05-05T22:19:01.886Z,9.88
2023-05-05T22:24:01.062Z,9.80
2023-05-05T22:29:00.995Z,9.80
2023-05-05T22:34:00.539Z,9.70
2023-05-05T22:39:01.518Z,9.70
2023-05-05T22:44:00.789Z,9.60
2023-05-05T22:49:00.279Z,9.60
2023-05-05T22:53:59.836Z,9.50
2023-05-05T22:59:01.689Z,9.40
2023-05-05T23:04:01.135Z,9.40
2023-05-05T23:09:02.400Z,9.30
2023-05-05T23:14:01.585Z,9.20
2023-05-05T23:19:04.038Z,9.10
2023-05-05T23:24:26.719Z,9.00
2023-05-05T23:29:26.537Z,8.90
2023-05-05T23:34:28.460Z,8.80
2023-05-05T23:39:27.988Z,8.66
2023-05-05T23:44:27.852Z,8.50
2023-05-05T23:49:27.235Z,8.40
2023-05-05T23:54:26.391Z,8.20
2023-05-05T23:59:26.049Z,8.10
